MPDA/DAV METAR and TAF weather

Enter ICAO airport designator
Station Type Date Time Source
MPDA METAR 2022/01/26 20:00 UTC NOAA

MPDA 262000Z 19010KT 9999 FEW020 31/21 Q1009


Station Type Date Time Source
MPDA Decoded METAR 2022/01/26 20:00 UTC NOAA

David, Panama (MPDA) 08-24N 082-25W 26M
Jan 26, 2022 - 03:00 PM EST / 2022.01.26 2000 UTC
Wind: from the S (190 degrees) at 12 MPH (10 KT):0
Visibility: greater than 7 mile(s):0
Sky conditions: mostly clear
Temperature: 87 F (31 C)
Dew Point: 69 F (21 C)
Relative Humidity: 55%
Pressure (altimeter): 29.80 in. Hg (1009 hPa)
ob: MPDA 262000Z 19010KT 9999 FEW020 31/21 Q1009
cycle: 20

Station Type Date Time Source
MPDA TAF 2022/01/26 18:57 UTC NOAA

TAF TAF MPDA 261700Z 2618/2706 20007KT 9999 FEW020
TEMPO 2618/2622 18014KT SCT018

Example: see airport list